sensor_id;sensor_type;location;lat;lon;timestamp;P1;durP1;ratioP1;P2;durP2;ratioP2
66437;SDS011;54537;47.972;11.662;2022-12-07T00:01:23;27.10;;;9.15;;
66437;SDS011;54537;47.972;11.662;2022-12-07T00:03:52;24.30;;;7.68;;
66437;SDS011;54537;47.972;11.662;2022-12-07T00:06:19;23.27;;;7.68;;
66437;SDS011;54537;47.972;11.662;2022-12-07T00:08:46;22.05;;;7.65;;
66437;SDS011;54537;47.972;11.662;2022-12-07T00:11:14;24.92;;;8.38;;
66437;SDS011;54537;47.972;11.662;2022-12-07T00:13:41;21.50;;;8.25;;
66437;SDS011;54537;47.972;11.662;2022-12-07T00:16:09;23.65;;;8.60;;
66437;SDS011;54537;47.972;11.662;2022-12-07T00:18:37;24.90;;;9.05;;
66437;SDS011;54537;47.972;11.662;2022-12-07T00:21:06;22.95;;;7.88;;
66437;SDS011;54537;47.972;11.662;2022-12-07T00:23:33;22.20;;;7.95;;
66437;SDS011;54537;47.972;11.662;2022-12-07T00:26:03;23.13;;;8.18;;
66437;SDS011;54537;47.972;11.662;2022-12-07T00:28:31;24.58;;;7.63;;
66437;SDS011;54537;47.972;11.662;2022-12-07T00:30:59;25.48;;;8.65;;
66437;SDS011;54537;47.972;11.662;2022-12-07T00:33:27;24.45;;;8.73;;
66437;SDS011;54537;47.972;11.662;2022-12-07T00:35:54;23.98;;;8.73;;
66437;SDS011;54537;47.972;11.662;2022-12-07T00:38:23;21.08;;;8.18;;
66437;SDS011;54537;47.972;11.662;2022-12-07T00:40:53;20.88;;;7.47;;
66437;SDS011;54537;47.972;11.662;2022-12-07T00:43:21;20.92;;;8.15;;
66437;SDS011;54537;47.972;11.662;2022-12-07T00:45:48;19.80;;;7.38;;
66437;SDS011;54537;47.972;11.662;2022-12-07T00:48:14;25.58;;;8.52;;
66437;SDS011;54537;47.972;11.662;2022-12-07T00:50:41;21.45;;;7.78;;
66437;SDS011;54537;47.972;11.662;2022-12-07T00:53:07;20.30;;;8.40;;
66437;SDS011;54537;47.972;11.662;2022-12-07T00:55:35;23.00;;;8.15;;
66437;SDS011;54537;47.972;11.662;2022-12-07T00:58:02;20.42;;;7.75;;
66437;SDS011;54537;47.972;11.662;2022-12-07T01:00:29;18.50;;;7.25;;
66437;SDS011;54537;47.972;11.662;2022-12-07T01:02:56;21.30;;;8.25;;
66437;SDS011;54537;47.972;11.662;2022-12-07T01:05:23;20.23;;;7.80;;
66437;SDS011;54537;47.972;11.662;2022-12-07T01:07:49;22.73;;;8.07;;
66437;SDS011;54537;47.972;11.662;2022-12-07T01:10:16;23.50;;;8.13;;
66437;SDS011;54537;47.972;11.662;2022-12-07T01:12:44;19.75;;;8.15;;
66437;SDS011;54537;47.972;11.662;2022-12-07T01:15:10;22.85;;;8.13;;
66437;SDS011;54537;47.972;11.662;2022-12-07T01:17:37;23.27;;;7.50;;
66437;SDS011;54537;47.972;11.662;2022-12-07T01:20:04;21.50;;;7.40;;
66437;SDS011;54537;47.972;11.662;2022-12-07T01:22:31;22.63;;;7.88;;
66437;SDS011;54537;47.972;11.662;2022-12-07T01:25:02;21.90;;;7.88;;
66437;SDS011;54537;47.972;11.662;2022-12-07T01:27:29;22.55;;;7.47;;
66437;SDS011;54537;47.972;11.662;2022-12-07T01:29:57;21.55;;;8.30;;
66437;SDS011;54537;47.972;11.662;2022-12-07T01:32:24;26.02;;;8.88;;
66437;SDS011;54537;47.972;11.662;2022-12-07T01:34:50;22.35;;;7.60;;
66437;SDS011;54537;47.972;11.662;2022-12-07T01:37:17;19.95;;;8.20;;
66437;SDS011;54537;47.972;11.662;2022-12-07T01:39:44;23.10;;;8.77;;
66437;SDS011;54537;47.972;11.662;2022-12-07T01:42:10;18.08;;;7.40;;
66437;SDS011;54537;47.972;11.662;2022-12-07T01:47:38;21.30;;;7.95;;
66437;SDS011;54537;47.972;11.662;2022-12-07T01:50:05;22.92;;;8.07;;
66437;SDS011;54537;47.972;11.662;2022-12-07T01:52:32;21.27;;;7.60;;
66437;SDS011;54537;47.972;11.662;2022-12-07T01:55:00;22.15;;;8.07;;
66437;SDS011;54537;47.972;11.662;2022-12-07T01:57:30;21.33;;;8.13;;
66437;SDS011;54537;47.972;11.662;2022-12-07T01:59:57;20.83;;;8.35;;
66437;SDS011;54537;47.972;11.662;2022-12-07T02:02:25;24.20;;;7.70;;
66437;SDS011;54537;47.972;11.662;2022-12-07T02:04:55;22.00;;;8.50;;
66437;SDS011;54537;47.972;11.662;2022-12-07T02:07:22;23.90;;;8.10;;
66437;SDS011;54537;47.972;11.662;2022-12-07T02:09:49;21.33;;;7.63;;
66437;SDS011;54537;47.972;11.662;2022-12-07T02:12:15;24.35;;;7.90;;
66437;SDS011;54537;47.972;11.662;2022-12-07T02:14:42;22.42;;;8.13;;
66437;SDS011;54537;47.972;11.662;2022-12-07T02:17:11;21.60;;;8.63;;
66437;SDS011;54537;47.972;11.662;2022-12-07T02:19:48;24.50;;;8.38;;
66437;SDS011;54537;47.972;11.662;2022-12-07T02:25:47;21.23;;;7.78;;
66437;SDS011;54537;47.972;11.662;2022-12-07T02:28:25;25.63;;;8.77;;
66437;SDS011;54537;47.972;11.662;2022-12-07T02:30:55;23.00;;;8.43;;
66437;SDS011;54537;47.972;11.662;2022-12-07T02:33:28;22.20;;;7.57;;
66437;SDS011;54537;47.972;11.662;2022-12-07T02:35:59;21.45;;;7.60;;
66437;SDS011;54537;47.972;11.662;2022-12-07T02:38:28;19.13;;;7.53;;
66437;SDS011;54537;47.972;11.662;2022-12-07T02:41:00;17.90;;;6.50;;
66437;SDS011;54537;47.972;11.662;2022-12-07T02:43:30;20.55;;;7.80;;
66437;SDS011;54537;47.972;11.662;2022-12-07T02:46:02;21.60;;;7.82;;
66437;SDS011;54537;47.972;11.662;2022-12-07T02:48:32;21.02;;;7.85;;
66437;SDS011;54537;47.972;11.662;2022-12-07T02:51:00;18.85;;;7.88;;
66437;SDS011;54537;47.972;11.662;2022-12-07T02:53:34;22.92;;;8.45;;
66437;SDS011;54537;47.972;11.662;2022-12-07T02:56:03;23.00;;;8.25;;
66437;SDS011;54537;47.972;11.662;2022-12-07T02:58:36;22.77;;;8.02;;
66437;SDS011;54537;47.972;11.662;2022-12-07T03:01:11;23.88;;;7.10;;
66437;SDS011;54537;47.972;11.662;2022-12-07T03:03:46;21.88;;;8.32;;
66437;SDS011;54537;47.972;11.662;2022-12-07T03:06:16;26.70;;;8.25;;
66437;SDS011;54537;47.972;11.662;2022-12-07T03:08:49;22.55;;;7.97;;
66437;SDS011;54537;47.972;11.662;2022-12-07T03:11:20;18.73;;;7.72;;
66437;SDS011;54537;47.972;11.662;2022-12-07T03:13:50;22.65;;;7.70;;
66437;SDS011;54537;47.972;11.662;2022-12-07T03:16:21;22.75;;;7.55;;
66437;SDS011;54537;47.972;11.662;2022-12-07T03:18:52;20.75;;;8.18;;
66437;SDS011;54537;47.972;11.662;2022-12-07T03:21:23;21.27;;;7.97;;
66437;SDS011;54537;47.972;11.662;2022-12-07T03:23:53;20.85;;;8.05;;
66437;SDS011;54537;47.972;11.662;2022-12-07T03:26:24;19.42;;;7.47;;
66437;SDS011;54537;47.972;11.662;2022-12-07T03:28:58;20.92;;;7.97;;
66437;SDS011;54537;47.972;11.662;2022-12-07T03:31:28;19.88;;;7.15;;
66437;SDS011;54537;47.972;11.662;2022-12-07T03:33:58;25.00;;;8.63;;
66437;SDS011;54537;47.972;11.662;2022-12-07T03:36:29;22.15;;;7.70;;
66437;SDS011;54537;47.972;11.662;2022-12-07T03:39:02;22.17;;;7.65;;
66437;SDS011;54537;47.972;11.662;2022-12-07T03:41:34;20.02;;;7.38;;
66437;SDS011;54537;47.972;11.662;2022-12-07T03:44:02;21.58;;;8.23;;
66437;SDS011;54537;47.972;11.662;2022-12-07T03:46:34;20.65;;;7.90;;
66437;SDS011;54537;47.972;11.662;2022-12-07T03:49:04;22.90;;;8.63;;
66437;SDS011;54537;47.972;11.662;2022-12-07T03:51:36;20.77;;;8.00;;
66437;SDS011;54537;47.972;11.662;2022-12-07T03:54:07;20.17;;;7.65;;
66437;SDS011;54537;47.972;11.662;2022-12-07T03:56:37;24.90;;;8.48;;
66437;SDS011;54537;47.972;11.662;2022-12-07T03:59:04;22.35;;;7.88;;
66437;SDS011;54537;47.972;11.662;2022-12-07T04:01:32;22.77;;;8.23;;
66437;SDS011;54537;47.972;11.662;2022-12-07T04:03:58;24.77;;;8.40;;
66437;SDS011;54537;47.972;11.662;2022-12-07T04:06:25;21.48;;;7.75;;
66437;SDS011;54537;47.972;11.662;2022-12-07T04:08:52;23.55;;;8.57;;
66437;SDS011;54537;47.972;11.662;2022-12-07T04:11:18;21.88;;;8.10;;
66437;SDS011;54537;47.972;11.662;2022-12-07T04:13:45;23.05;;;8.50;;
66437;SDS011;54537;47.972;11.662;2022-12-07T04:16:29;20.38;;;7.93;;
66437;SDS011;54537;47.972;11.662;2022-12-07T04:18:57;23.15;;;8.25;;
66437;SDS011;54537;47.972;11.662;2022-12-07T04:21:23;23.67;;;8.02;;
66437;SDS011;54537;47.972;11.662;2022-12-07T04:23:50;23.08;;;8.40;;
66437;SDS011;54537;47.972;11.662;2022-12-07T04:26:16;25.83;;;8.02;;
66437;SDS011;54537;47.972;11.662;2022-12-07T04:28:43;19.95;;;8.07;;
66437;SDS011;54537;47.972;11.662;2022-12-07T04:31:09;22.23;;;7.75;;
66437;SDS011;54537;47.972;11.662;2022-12-07T04:33:36;26.25;;;8.55;;
66437;SDS011;54537;47.972;11.662;2022-12-07T04:36:04;20.98;;;7.82;;
66437;SDS011;54537;47.972;11.662;2022-12-07T04:38:32;19.30;;;7.60;;
66437;SDS011;54537;47.972;11.662;2022-12-07T04:41:04;26.30;;;8.68;;
66437;SDS011;54537;47.972;11.662;2022-12-07T04:43:31;19.23;;;7.78;;
66437;SDS011;54537;47.972;11.662;2022-12-07T04:45:57;23.45;;;8.60;;
66437;SDS011;54537;47.972;11.662;2022-12-07T04:48:24;21.08;;;8.00;;
66437;SDS011;54537;47.972;11.662;2022-12-07T04:50:50;22.60;;;7.80;;
66437;SDS011;54537;47.972;11.662;2022-12-07T04:53:18;23.25;;;7.80;;
66437;SDS011;54537;47.972;11.662;2022-12-07T04:55:45;22.33;;;8.15;;
66437;SDS011;54537;47.972;11.662;2022-12-07T04:58:12;23.45;;;8.20;;
66437;SDS011;54537;47.972;11.662;2022-12-07T05:00:39;23.35;;;8.13;;
66437;SDS011;54537;47.972;11.662;2022-12-07T05:03:06;23.23;;;8.00;;
66437;SDS011;54537;47.972;11.662;2022-12-07T05:05:32;22.58;;;7.38;;
66437;SDS011;54537;47.972;11.662;2022-12-07T05:07:59;20.27;;;7.47;;
66437;SDS011;54537;47.972;11.662;2022-12-07T05:10:27;23.83;;;7.97;;
66437;SDS011;54537;47.972;11.662;2022-12-07T05:12:53;22.73;;;7.78;;
66437;SDS011;54537;47.972;11.662;2022-12-07T05:15:20;24.13;;;8.00;;
66437;SDS011;54537;47.972;11.662;2022-12-07T05:17:46;22.45;;;7.30;;
66437;SDS011;54537;47.972;11.662;2022-12-07T05:20:13;20.90;;;7.53;;
66437;SDS011;54537;47.972;11.662;2022-12-07T05:22:39;23.40;;;7.93;;
66437;SDS011;54537;47.972;11.662;2022-12-07T05:25:06;20.80;;;7.28;;
66437;SDS011;54537;47.972;11.662;2022-12-07T05:27:35;20.05;;;7.35;;
66437;SDS011;54537;47.972;11.662;2022-12-07T05:30:01;19.30;;;7.05;;
66437;SDS011;54537;47.972;11.662;2022-12-07T05:32:28;19.02;;;6.95;;
66437;SDS011;54537;47.972;11.662;2022-12-07T05:34:55;18.77;;;7.38;;
66437;SDS011;54537;47.972;11.662;2022-12-07T05:37:21;19.65;;;7.32;;
66437;SDS011;54537;47.972;11.662;2022-12-07T05:39:48;23.75;;;7.57;;
66437;SDS011;54537;47.972;11.662;2022-12-07T05:42:14;18.33;;;6.70;;
66437;SDS011;54537;47.972;11.662;2022-12-07T05:44:44;17.17;;;6.40;;
66437;SDS011;54537;47.972;11.662;2022-12-07T05:47:11;16.88;;;6.18;;
66437;SDS011;54537;47.972;11.662;2022-12-07T05:49:38;18.27;;;6.50;;
66437;SDS011;54537;47.972;11.662;2022-12-07T05:52:05;18.33;;;7.15;;
66437;SDS011;54537;47.972;11.662;2022-12-07T05:54:32;20.85;;;6.60;;
66437;SDS011;54537;47.972;11.662;2022-12-07T05:56:59;18.83;;;6.82;;
66437;SDS011;54537;47.972;11.662;2022-12-07T05:59:26;17.70;;;6.93;;
66437;SDS011;54537;47.972;11.662;2022-12-07T06:01:54;18.40;;;6.97;;
66437;SDS011;54537;47.972;11.662;2022-12-07T06:04:22;18.98;;;7.40;;
66437;SDS011;54537;47.972;11.662;2022-12-07T06:06:49;21.88;;;7.13;;
66437;SDS011;54537;47.972;11.662;2022-12-07T06:09:16;18.83;;;7.15;;
66437;SDS011;54537;47.972;11.662;2022-12-07T06:11:43;21.13;;;6.85;;
66437;SDS011;54537;47.972;11.662;2022-12-07T06:14:27;22.98;;;7.68;;
66437;SDS011;54537;47.972;11.662;2022-12-07T06:16:55;16.75;;;6.95;;
66437;SDS011;54537;47.972;11.662;2022-12-07T06:19:22;19.55;;;7.93;;
66437;SDS011;54537;47.972;11.662;2022-12-07T06:21:48;19.67;;;7.15;;
66437;SDS011;54537;47.972;11.662;2022-12-07T06:24:15;18.20;;;7.47;;
66437;SDS011;54537;47.972;11.662;2022-12-07T06:26:42;17.90;;;6.88;;
66437;SDS011;54537;47.972;11.662;2022-12-07T06:29:09;17.00;;;6.43;;
66437;SDS011;54537;47.972;11.662;2022-12-07T06:31:36;16.85;;;6.28;;
66437;SDS011;54537;47.972;11.662;2022-12-07T06:34:05;16.63;;;6.30;;
66437;SDS011;54537;47.972;11.662;2022-12-07T06:36:33;16.80;;;6.22;;
66437;SDS011;54537;47.972;11.662;2022-12-07T06:39:00;15.07;;;6.38;;
66437;SDS011;54537;47.972;11.662;2022-12-07T06:41:27;15.52;;;5.95;;
66437;SDS011;54537;47.972;11.662;2022-12-07T06:43:53;13.88;;;6.10;;
66437;SDS011;54537;47.972;11.662;2022-12-07T06:46:20;20.83;;;6.95;;
66437;SDS011;54537;47.972;11.662;2022-12-07T06:48:46;15.60;;;6.32;;
66437;SDS011;54537;47.972;11.662;2022-12-07T06:51:14;12.63;;;5.47;;
66437;SDS011;54537;47.972;11.662;2022-12-07T06:53:41;15.93;;;6.72;;
66437;SDS011;54537;47.972;11.662;2022-12-07T06:56:07;17.65;;;7.05;;
66437;SDS011;54537;47.972;11.662;2022-12-07T06:58:34;17.40;;;7.28;;
66437;SDS011;54537;47.972;11.662;2022-12-07T07:01:00;15.45;;;6.03;;
66437;SDS011;54537;47.972;11.662;2022-12-07T07:03:27;19.45;;;6.57;;
66437;SDS011;54537;47.972;11.662;2022-12-07T07:05:54;16.67;;;6.07;;
66437;SDS011;54537;47.972;11.662;2022-12-07T07:08:22;18.42;;;6.72;;
66437;SDS011;54537;47.972;11.662;2022-12-07T07:10:49;17.08;;;6.65;;
66437;SDS011;54537;47.972;11.662;2022-12-07T07:13:15;17.05;;;7.05;;
66437;SDS011;54537;47.972;11.662;2022-12-07T07:15:42;16.95;;;7.05;;
66437;SDS011;54537;47.972;11.662;2022-12-07T07:18:08;18.13;;;7.22;;
66437;SDS011;54537;47.972;11.662;2022-12-07T07:20:35;20.35;;;6.57;;
66437;SDS011;54537;47.972;11.662;2022-12-07T07:23:02;15.43;;;6.30;;
66437;SDS011;54537;47.972;11.662;2022-12-07T07:25:30;16.27;;;6.32;;
66437;SDS011;54537;47.972;11.662;2022-12-07T07:27:57;20.88;;;8.10;;
66437;SDS011;54537;47.972;11.662;2022-12-07T07:30:24;20.23;;;7.40;;
66437;SDS011;54537;47.972;11.662;2022-12-07T07:32:51;23.63;;;8.60;;
66437;SDS011;54537;47.972;11.662;2022-12-07T07:35:17;19.77;;;6.65;;
66437;SDS011;54537;47.972;11.662;2022-12-07T07:37:44;18.48;;;7.05;;
66437;SDS011;54537;47.972;11.662;2022-12-07T07:40:10;16.40;;;6.63;;
66437;SDS011;54537;47.972;11.662;2022-12-07T07:42:39;18.27;;;7.18;;
66437;SDS011;54537;47.972;11.662;2022-12-07T07:45:06;18.77;;;7.47;;
66437;SDS011;54537;47.972;11.662;2022-12-07T07:47:33;22.48;;;7.93;;
66437;SDS011;54537;47.972;11.662;2022-12-07T07:49:59;16.77;;;6.40;;
66437;SDS011;54537;47.972;11.662;2022-12-07T07:52:26;19.08;;;6.88;;
66437;SDS011;54537;47.972;11.662;2022-12-07T07:54:52;19.83;;;6.90;;
66437;SDS011;54537;47.972;11.662;2022-12-07T07:57:19;16.33;;;6.55;;
66437;SDS011;54537;47.972;11.662;2022-12-07T07:59:47;16.67;;;6.10;;
66437;SDS011;54537;47.972;11.662;2022-12-07T08:02:14;18.38;;;6.88;;
66437;SDS011;54537;47.972;11.662;2022-12-07T08:04:42;17.98;;;7.35;;
66437;SDS011;54537;47.972;11.662;2022-12-07T08:07:08;17.45;;;6.70;;
66437;SDS011;54537;47.972;11.662;2022-12-07T08:09:36;18.38;;;6.82;;
66437;SDS011;54537;47.972;11.662;2022-12-07T08:12:03;18.95;;;6.75;;
66437;SDS011;54537;47.972;11.662;2022-12-07T08:14:30;17.33;;;6.70;;
66437;SDS011;54537;47.972;11.662;2022-12-07T08:16:58;16.20;;;6.35;;
66437;SDS011;54537;47.972;11.662;2022-12-07T08:19:25;16.17;;;6.20;;
66437;SDS011;54537;47.972;11.662;2022-12-07T08:21:51;17.95;;;7.13;;
66437;SDS011;54537;47.972;11.662;2022-12-07T08:24:18;18.42;;;6.78;;
66437;SDS011;54537;47.972;11.662;2022-12-07T08:26:44;19.92;;;7.13;;
66437;SDS011;54537;47.972;11.662;2022-12-07T08:29:11;18.70;;;7.32;;
66437;SDS011;54537;47.972;11.662;2022-12-07T08:31:37;20.38;;;7.43;;
66437;SDS011;54537;47.972;11.662;2022-12-07T08:34:06;20.00;;;7.45;;
66437;SDS011;54537;47.972;11.662;2022-12-07T08:36:32;19.52;;;7.13;;
66437;SDS011;54537;47.972;11.662;2022-12-07T08:38:59;19.60;;;7.22;;
66437;SDS011;54537;47.972;11.662;2022-12-07T08:41:25;19.70;;;7.50;;
66437;SDS011;54537;47.972;11.662;2022-12-07T08:43:52;17.27;;;6.90;;
66437;SDS011;54537;47.972;11.662;2022-12-07T08:46:19;19.42;;;7.30;;
66437;SDS011;54537;47.972;11.662;2022-12-07T08:48:48;19.15;;;7.40;;
66437;SDS011;54537;47.972;11.662;2022-12-07T08:51:17;18.75;;;7.93;;
66437;SDS011;54537;47.972;11.662;2022-12-07T08:53:44;18.45;;;7.45;;
66437;SDS011;54537;47.972;11.662;2022-12-07T08:56:11;17.52;;;6.60;;
66437;SDS011;54537;47.972;11.662;2022-12-07T08:58:37;17.17;;;6.63;;
66437;SDS011;54537;47.972;11.662;2022-12-07T09:01:05;18.30;;;7.10;;
66437;SDS011;54537;47.972;11.662;2022-12-07T09:03:31;21.67;;;7.05;;
66437;SDS011;54537;47.972;11.662;2022-12-07T09:05:58;15.68;;;6.18;;
66437;SDS011;54537;47.972;11.662;2022-12-07T09:08:27;17.13;;;6.68;;
66437;SDS011;54537;47.972;11.662;2022-12-07T09:10:56;16.70;;;6.13;;
66437;SDS011;54537;47.972;11.662;2022-12-07T09:13:22;17.05;;;6.68;;
66437;SDS011;54537;47.972;11.662;2022-12-07T09:15:49;16.55;;;6.57;;
66437;SDS011;54537;47.972;11.662;2022-12-07T09:18:15;16.55;;;6.22;;
66437;SDS011;54537;47.972;11.662;2022-12-07T09:20:42;14.02;;;6.22;;
66437;SDS011;54537;47.972;11.662;2022-12-07T09:23:09;15.77;;;6.28;;
66437;SDS011;54537;47.972;11.662;2022-12-07T09:25:36;15.55;;;6.28;;
66437;SDS011;54537;47.972;11.662;2022-12-07T09:28:03;17.17;;;7.15;;
66437;SDS011;54537;47.972;11.662;2022-12-07T09:30:30;22.05;;;7.45;;
66437;SDS011;54537;47.972;11.662;2022-12-07T09:32:56;23.20;;;7.57;;
66437;SDS011;54537;47.972;11.662;2022-12-07T09:35:23;15.45;;;6.35;;
66437;SDS011;54537;47.972;11.662;2022-12-07T09:37:50;16.17;;;6.38;;
66437;SDS011;54537;47.972;11.662;2022-12-07T09:40:17;17.27;;;6.47;;
66437;SDS011;54537;47.972;11.662;2022-12-07T09:42:49;20.67;;;8.02;;
66437;SDS011;54537;47.972;11.662;2022-12-07T09:45:17;17.50;;;6.80;;
66437;SDS011;54537;47.972;11.662;2022-12-07T09:47:46;13.85;;;6.30;;
66437;SDS011;54537;47.972;11.662;2022-12-07T09:50:13;15.18;;;5.50;;
66437;SDS011;54537;47.972;11.662;2022-12-07T09:52:41;15.02;;;6.18;;
66437;SDS011;54537;47.972;11.662;2022-12-07T09:55:09;19.02;;;7.25;;
66437;SDS011;54537;47.972;11.662;2022-12-07T09:57:37;16.27;;;6.13;;
66437;SDS011;54537;47.972;11.662;2022-12-07T10:00:06;21.38;;;7.18;;
66437;SDS011;54537;47.972;11.662;2022-12-07T10:02:38;16.42;;;6.78;;
66437;SDS011;54537;47.972;11.662;2022-12-07T10:05:07;17.50;;;6.70;;
66437;SDS011;54537;47.972;11.662;2022-12-07T10:07:38;16.83;;;5.93;;
66437;SDS011;54537;47.972;11.662;2022-12-07T10:10:06;18.77;;;6.63;;
66437;SDS011;54537;47.972;11.662;2022-12-07T10:12:52;14.50;;;5.88;;
66437;SDS011;54537;47.972;11.662;2022-12-07T10:15:22;15.68;;;6.20;;
66437;SDS011;54537;47.972;11.662;2022-12-07T10:17:49;18.13;;;6.63;;
66437;SDS011;54537;47.972;11.662;2022-12-07T10:20:18;17.05;;;6.53;;
66437;SDS011;54537;47.972;11.662;2022-12-07T10:22:56;16.83;;;6.90;;
66437;SDS011;54537;47.972;11.662;2022-12-07T10:25:26;15.80;;;6.28;;
66437;SDS011;54537;47.972;11.662;2022-12-07T10:27:57;16.45;;;6.55;;
66437;SDS011;54537;47.972;11.662;2022-12-07T10:30:26;21.95;;;7.45;;
66437;SDS011;54537;47.972;11.662;2022-12-07T10:32:52;21.95;;;7.72;;
66437;SDS011;54537;47.972;11.662;2022-12-07T10:35:20;19.60;;;7.35;;
66437;SDS011;54537;47.972;11.662;2022-12-07T10:37:49;17.92;;;7.35;;
66437;SDS011;54537;47.972;11.662;2022-12-07T10:40:25;20.95;;;7.53;;
66437;SDS011;54537;47.972;11.662;2022-12-07T10:43:00;16.75;;;6.50;;
66437;SDS011;54537;47.972;11.662;2022-12-07T10:45:29;16.48;;;7.00;;
66437;SDS011;54537;47.972;11.662;2022-12-07T10:47:57;14.82;;;6.13;;
66437;SDS011;54537;47.972;11.662;2022-12-07T10:50:29;16.92;;;6.57;;
66437;SDS011;54537;47.972;11.662;2022-12-07T10:53:14;16.38;;;6.65;;
66437;SDS011;54537;47.972;11.662;2022-12-07T10:55:53;18.27;;;7.22;;
66437;SDS011;54537;47.972;11.662;2022-12-07T10:58:29;16.13;;;6.78;;
66437;SDS011;54537;47.972;11.662;2022-12-07T11:01:01;15.77;;;6.88;;
66437;SDS011;54537;47.972;11.662;2022-12-07T11:03:37;16.60;;;6.80;;
66437;SDS011;54537;47.972;11.662;2022-12-07T11:06:13;16.90;;;6.75;;
66437;SDS011;54537;47.972;11.662;2022-12-07T11:08:50;16.42;;;6.68;;
66437;SDS011;54537;47.972;11.662;2022-12-07T11:11:26;15.32;;;6.32;;
66437;SDS011;54537;47.972;11.662;2022-12-07T11:14:00;15.05;;;6.13;;
66437;SDS011;54537;47.972;11.662;2022-12-07T11:16:37;16.70;;;7.13;;
66437;SDS011;54537;47.972;11.662;2022-12-07T11:19:32;16.85;;;6.78;;
66437;SDS011;54537;47.972;11.662;2022-12-07T11:22:08;14.40;;;6.25;;
66437;SDS011;54537;47.972;11.662;2022-12-07T11:24:40;15.73;;;6.18;;
66437;SDS011;54537;47.972;11.662;2022-12-07T11:27:14;17.25;;;6.90;;
66437;SDS011;54537;47.972;11.662;2022-12-07T11:35:24;19.90;;;7.68;;
66437;SDS011;54537;47.972;11.662;2022-12-07T11:37:57;18.45;;;6.45;;
66437;SDS011;54537;47.972;11.662;2022-12-07T11:40:26;19.98;;;6.53;;
66437;SDS011;54537;47.972;11.662;2022-12-07T11:42:57;24.15;;;8.43;;
66437;SDS011;54537;47.972;11.662;2022-12-07T11:45:25;21.95;;;8.65;;
66437;SDS011;54537;47.972;11.662;2022-12-07T11:47:54;13.52;;;5.68;;
66437;SDS011;54537;47.972;11.662;2022-12-07T11:50:25;20.40;;;7.97;;
66437;SDS011;54537;47.972;11.662;2022-12-07T11:52:55;14.27;;;6.40;;
66437;SDS011;54537;47.972;11.662;2022-12-07T11:55:25;13.05;;;6.40;;
66437;SDS011;54537;47.972;11.662;2022-12-07T11:57:56;15.40;;;6.28;;
66437;SDS011;54537;47.972;11.662;2022-12-07T12:00:26;15.35;;;6.18;;
66437;SDS011;54537;47.972;11.662;2022-12-07T12:02:55;9.60;;;3.42;;
66437;SDS011;54537;47.972;11.662;2022-12-07T12:05:26;12.25;;;4.78;;
66437;SDS011;54537;47.972;11.662;2022-12-07T12:07:55;15.95;;;6.55;;
66437;SDS011;54537;47.972;11.662;2022-12-07T12:10:29;14.93;;;5.90;;
66437;SDS011;54537;47.972;11.662;2022-12-07T12:13:06;15.38;;;5.57;;
66437;SDS011;54537;47.972;11.662;2022-12-07T12:15:55;19.20;;;6.63;;
66437;SDS011;54537;47.972;11.662;2022-12-07T12:18:42;15.57;;;6.70;;
66437;SDS011;54537;47.972;11.662;2022-12-07T12:21:18;14.73;;;5.93;;
66437;SDS011;54537;47.972;11.662;2022-12-07T12:23:47;16.88;;;6.35;;
66437;SDS011;54537;47.972;11.662;2022-12-07T12:26:16;15.13;;;5.72;;
66437;SDS011;54537;47.972;11.662;2022-12-07T12:28:49;16.83;;;6.22;;
66437;SDS011;54537;47.972;11.662;2022-12-07T12:31:29;16.05;;;6.82;;
66437;SDS011;54537;47.972;11.662;2022-12-07T12:34:02;19.70;;;6.32;;
66437;SDS011;54537;47.972;11.662;2022-12-07T12:36:42;11.93;;;5.70;;
66437;SDS011;54537;47.972;11.662;2022-12-07T12:39:11;20.50;;;6.22;;
66437;SDS011;54537;47.972;11.662;2022-12-07T12:41:58;15.60;;;6.18;;
66437;SDS011;54537;47.972;11.662;2022-12-07T12:47:43;14.00;;;5.50;;
66437;SDS011;54537;47.972;11.662;2022-12-07T12:50:22;12.88;;;5.60;;
66437;SDS011;54537;47.972;11.662;2022-12-07T12:52:52;15.48;;;5.88;;
66437;SDS011;54537;47.972;11.662;2022-12-07T12:55:22;12.02;;;5.30;;
66437;SDS011;54537;47.972;11.662;2022-12-07T13:03:59;11.68;;;4.65;;
66437;SDS011;54537;47.972;11.662;2022-12-07T13:06:34;14.50;;;6.00;;
66437;SDS011;54537;47.972;11.662;2022-12-07T13:09:03;16.75;;;6.10;;
66437;SDS011;54537;47.972;11.662;2022-12-07T13:11:31;15.77;;;6.43;;
66437;SDS011;54537;47.972;11.662;2022-12-07T13:17:04;12.30;;;5.10;;
66437;SDS011;54537;47.972;11.662;2022-12-07T13:25:18;11.23;;;4.63;;
66437;SDS011;54537;47.972;11.662;2022-12-07T13:28:02;12.82;;;5.35;;
66437;SDS011;54537;47.972;11.662;2022-12-07T13:30:38;12.05;;;5.28;;
66437;SDS011;54537;47.972;11.662;2022-12-07T13:33:09;12.88;;;5.45;;
66437;SDS011;54537;47.972;11.662;2022-12-07T13:35:37;14.75;;;5.32;;
66437;SDS011;54537;47.972;11.662;2022-12-07T13:38:13;12.38;;;4.85;;
66437;SDS011;54537;47.972;11.662;2022-12-07T13:40:59;11.60;;;5.38;;
66437;SDS011;54537;47.972;11.662;2022-12-07T13:43:27;13.65;;;5.75;;
66437;SDS011;54537;47.972;11.662;2022-12-07T13:45:55;15.30;;;5.55;;
66437;SDS011;54537;47.972;11.662;2022-12-07T13:48:24;15.45;;;5.95;;
66437;SDS011;54537;47.972;11.662;2022-12-07T13:50:55;13.15;;;5.45;;
66437;SDS011;54537;47.972;11.662;2022-12-07T13:53:23;14.05;;;5.55;;
66437;SDS011;54537;47.972;11.662;2022-12-07T13:55:53;13.80;;;6.03;;
66437;SDS011;54537;47.972;11.662;2022-12-07T13:58:19;11.15;;;5.13;;
66437;SDS011;54537;47.972;11.662;2022-12-07T14:00:46;15.30;;;5.75;;
66437;SDS011;54537;47.972;11.662;2022-12-07T14:03:25;12.60;;;5.50;;
66437;SDS011;54537;47.972;11.662;2022-12-07T14:06:10;13.68;;;5.65;;
66437;SDS011;54537;47.972;11.662;2022-12-07T14:08:42;11.77;;;5.20;;
66437;SDS011;54537;47.972;11.662;2022-12-07T14:11:09;14.23;;;6.05;;
66437;SDS011;54537;47.972;11.662;2022-12-07T14:13:44;13.63;;;5.32;;
66437;SDS011;54537;47.972;11.662;2022-12-07T14:16:21;14.63;;;5.72;;
66437;SDS011;54537;47.972;11.662;2022-12-07T14:18:50;15.07;;;5.55;;
66437;SDS011;54537;47.972;11.662;2022-12-07T14:21:17;13.90;;;5.32;;
66437;SDS011;54537;47.972;11.662;2022-12-07T14:24:01;14.15;;;5.65;;
66437;SDS011;54537;47.972;11.662;2022-12-07T14:26:31;14.90;;;6.18;;
66437;SDS011;54537;47.972;11.662;2022-12-07T14:31:45;13.73;;;5.30;;
66437;SDS011;54537;47.972;11.662;2022-12-07T14:34:12;15.43;;;6.53;;
66437;SDS011;54537;47.972;11.662;2022-12-07T14:36:38;13.90;;;5.68;;
66437;SDS011;54537;47.972;11.662;2022-12-07T14:39:06;14.18;;;6.00;;
66437;SDS011;54537;47.972;11.662;2022-12-07T14:41:33;16.95;;;6.10;;
66437;SDS011;54537;47.972;11.662;2022-12-07T14:44:18;14.20;;;5.30;;
66437;SDS011;54537;47.972;11.662;2022-12-07T14:46:45;15.02;;;6.03;;
66437;SDS011;54537;47.972;11.662;2022-12-07T14:49:12;14.40;;;5.90;;
66437;SDS011;54537;47.972;11.662;2022-12-07T14:51:39;14.40;;;5.53;;
66437;SDS011;54537;47.972;11.662;2022-12-07T14:54:11;13.73;;;5.43;;
66437;SDS011;54537;47.972;11.662;2022-12-07T14:56:41;12.95;;;5.35;;
66437;SDS011;54537;47.972;11.662;2022-12-07T14:59:08;16.88;;;6.07;;
66437;SDS011;54537;47.972;11.662;2022-12-07T15:01:35;15.77;;;6.07;;
66437;SDS011;54537;47.972;11.662;2022-12-07T15:04:02;18.67;;;6.43;;
66437;SDS011;54537;47.972;11.662;2022-12-07T15:06:28;14.60;;;6.55;;